Aeroporto :
LOGIN :

Iscrizione | Disclaimer

   EN    FR    IT 

 










Sommario :    VFR   VFR Marginale   IFR   IFR Intensivo   IFR Molto Intensivo
Visibilità : 
Base nubi : 
>= 8 km
>= 3000ft
5 / 8 km
1000 / 3000 ft
1500m / 5 km
500 / 1000 ft
800 / 1500m
200 / 500 ft
< 800m
< 200 ft
Simboli :   Temporali  Nebbia  Neve Forte  Precipitazioni Forti  Vento > 20 kt
SIGMETs :   Varie  Temporali  Ghiacco  Turbolenza  Onda orograficha  Ceneri Vulcaniche






- Altitudine del aeroporto : -15 ft
- Codice IATA : RTM


EHRD - Rotterdam Zestienhoven

ULTIMO METAR :
  • 090325Z AUTO VRB02KT 5000 BR NSC 08/08 Q1024 NOSIG

METARs OBSOLETI :
  • 090255Z AUTO 04001KT 7000 NSC 08/08 Q1024 NOSIG
  • 090225Z AUTO 36003KT 4500 BR NCD 08/08 Q1023 NOSIG
  • 090155Z AUTO 36002KT 4400 BR NCD 08/08 Q1023 NOSIG
  • 090125Z AUTO 35002KT 2700 BR NCD 08/08 Q1024 NOSIG
  • 090055Z AUTO VRB01KT 3600 BR NCD 09/08 Q1024 NOSIG

TAF TAF EHRD
Valido dal 09 a 00 ore il 10 a 06 ore UTC


082251Z 0900/1006 06005KT CAVOK
BECMG 0905/0908 09006KT
BECMG 0912/0915 04010KT



MetMap, La meteo Aeronautica in un colpo d'occhio ! - Copyright ORBIFLY Dicembre 2007 - Disclaimer

ORBIFLY MET'MAP TEAM :

Programmazione e sviluppo : Alexandra Zaïnal
Concezione : Baudouin d'Aumeries
Aiuto per la programmazione : Marc-Olivier Méhu
Supporto tecnico e logistico : Manuel Goepfert
Aiuto per la traduzione : Arnaldo La Scala

Contatto : metmap@orbifly.com




FONTI E CREDITI :

   NOAA